sensor_id;sensor_type;location;lat;lon;timestamp;pressure;altitude;pressure_sealevel;temperature;humidity
58471;BME280;44258;51.288;12.068;2023-09-19T00:01:05;99645.44;;;19.76;75.86
58471;BME280;44258;51.288;12.068;2023-09-19T00:03:55;99643.72;;;19.74;75.55
58471;BME280;44258;51.288;12.068;2023-09-19T00:06:42;99643.25;;;19.79;75.16
58471;BME280;44258;51.288;12.068;2023-09-19T00:09:33;99640.53;;;19.79;74.88
58471;BME280;44258;51.288;12.068;2023-09-19T00:12:23;99644.94;;;19.80;75.09
58471;BME280;44258;51.288;12.068;2023-09-19T00:15:10;99652.44;;;19.78;74.94
58471;BME280;44258;51.288;12.068;2023-09-19T00:17:56;99649.25;;;19.83;74.98
58471;BME280;44258;51.288;12.068;2023-09-19T00:20:48;99673.97;;;19.81;74.87
58471;BME280;44258;51.288;12.068;2023-09-19T00:23:36;99667.31;;;19.84;74.42
58471;BME280;44258;51.288;12.068;2023-09-19T00:26:23;99668.16;;;19.84;74.38
58471;BME280;44258;51.288;12.068;2023-09-19T00:29:11;99660.31;;;19.81;74.66
58471;BME280;44258;51.288;12.068;2023-09-19T00:32:01;99653.78;;;19.74;74.83
58471;BME280;44258;51.288;12.068;2023-09-19T00:34:51;99656.97;;;19.69;75.02
58471;BME280;44258;51.288;12.068;2023-09-19T00:37:41;99647.19;;;19.59;74.62
58471;BME280;44258;51.288;12.068;2023-09-19T00:40:31;99645.47;;;19.58;74.47
58471;BME280;44258;51.288;12.068;2023-09-19T00:43:18;99639.31;;;19.56;74.93
58471;BME280;44258;51.288;12.068;2023-09-19T00:46:09;99637.09;;;19.51;75.11
58471;BME280;44258;51.288;12.068;2023-09-19T00:48:57;99639.06;;;19.41;75.84
58471;BME280;44258;51.288;12.068;2023-09-19T00:51:44;99649.97;;;19.41;76.17
58471;BME280;44258;51.288;12.068;2023-09-19T00:54:34;99644.38;;;19.42;75.63
58471;BME280;44258;51.288;12.068;2023-09-19T00:57:21;99653.66;;;19.31;76.26
58471;BME280;44258;51.288;12.068;2023-09-19T01:00:12;99656.03;;;19.26;76.29
58471;BME280;44258;51.288;12.068;2023-09-19T01:03:00;99648.00;;;19.25;76.63
58471;BME280;44258;51.288;12.068;2023-09-19T01:05:48;99655.88;;;19.28;76.18
58471;BME280;44258;51.288;12.068;2023-09-19T01:08:35;99663.50;;;19.24;76.70
58471;BME280;44258;51.288;12.068;2023-09-19T01:11:25;99657.28;;;19.14;76.80
58471;BME280;44258;51.288;12.068;2023-09-19T01:14:20;99665.19;;;19.25;76.55
58471;BME280;44258;51.288;12.068;2023-09-19T01:17:14;99663.97;;;19.20;76.07
58471;BME280;44258;51.288;12.068;2023-09-19T01:20:16;99667.09;;;19.07;76.59
58471;BME280;44258;51.288;12.068;2023-09-19T01:23:06;99669.81;;;19.07;76.75
58471;BME280;44258;51.288;12.068;2023-09-19T01:26:04;99677.28;;;19.05;76.75
58471;BME280;44258;51.288;12.068;2023-09-19T01:28:58;99672.50;;;18.89;78.39
58471;BME280;44258;51.288;12.068;2023-09-19T01:31:49;99688.56;;;18.92;77.93
58471;BME280;44258;51.288;12.068;2023-09-19T01:34:43;99682.13;;;18.93;77.32
58471;BME280;44258;51.288;12.068;2023-09-19T01:37:31;99678.78;;;18.99;77.23
58471;BME280;44258;51.288;12.068;2023-09-19T01:40:18;99679.94;;;18.97;77.37
58471;BME280;44258;51.288;12.068;2023-09-19T01:43:08;99672.38;;;18.90;77.51
58471;BME280;44258;51.288;12.068;2023-09-19T01:45:59;99676.53;;;18.94;76.66
58471;BME280;44258;51.288;12.068;2023-09-19T01:48:58;99683.03;;;18.84;77.35
58471;BME280;44258;51.288;12.068;2023-09-19T01:51:51;99693.09;;;19.01;76.57
58471;BME280;44258;51.288;12.068;2023-09-19T01:54:45;99693.72;;;18.95;76.58
58471;BME280;44258;51.288;12.068;2023-09-19T01:57:34;99702.28;;;19.00;76.21
58471;BME280;44258;51.288;12.068;2023-09-19T02:00:22;99707.03;;;18.98;76.21
58471;BME280;44258;51.288;12.068;2023-09-19T02:03:11;99711.03;;;19.04;76.04
58471;BME280;44258;51.288;12.068;2023-09-19T02:06:00;99697.91;;;19.07;75.67
58471;BME280;44258;51.288;12.068;2023-09-19T02:08:49;99707.16;;;18.79;76.65
58471;BME280;44258;51.288;12.068;2023-09-19T02:11:36;99714.56;;;18.86;76.24
58471;BME280;44258;51.288;12.068;2023-09-19T02:14:24;99714.00;;;18.83;76.40
58471;BME280;44258;51.288;12.068;2023-09-19T02:17:10;99715.41;;;18.87;76.00
58471;BME280;44258;51.288;12.068;2023-09-19T02:19:57;99718.13;;;18.87;76.04
58471;BME280;44258;51.288;12.068;2023-09-19T02:22:48;99721.19;;;18.84;76.05
58471;BME280;44258;51.288;12.068;2023-09-19T02:25:35;99719.63;;;18.81;76.30
58471;BME280;44258;51.288;12.068;2023-09-19T02:28:23;99726.31;;;18.69;76.63
58471;BME280;44258;51.288;12.068;2023-09-19T02:31:16;99729.03;;;18.69;76.12
58471;BME280;44258;51.288;12.068;2023-09-19T02:34:03;99726.84;;;18.72;75.89
58471;BME280;44258;51.288;12.068;2023-09-19T02:36:52;99729.81;;;18.79;76.10
58471;BME280;44258;51.288;12.068;2023-09-19T02:39:42;99739.06;;;18.86;75.59
58471;BME280;44258;51.288;12.068;2023-09-19T02:42:29;99739.34;;;18.93;74.93
58471;BME280;44258;51.288;12.068;2023-09-19T02:45:17;99742.66;;;18.87;75.26
58471;BME280;44258;51.288;12.068;2023-09-19T02:48:06;99732.84;;;18.76;75.34
58471;BME280;44258;51.288;12.068;2023-09-19T02:50:53;99743.88;;;18.74;75.63
58471;BME280;44258;51.288;12.068;2023-09-19T02:53:41;99750.22;;;18.75;75.31
58471;BME280;44258;51.288;12.068;2023-09-19T02:56:29;99746.22;;;18.69;75.13
58471;BME280;44258;51.288;12.068;2023-09-19T02:59:17;99744.34;;;18.70;75.24
58471;BME280;44258;51.288;12.068;2023-09-19T03:02:05;99757.16;;;18.60;75.28
58471;BME280;44258;51.288;12.068;2023-09-19T03:04:52;99753.28;;;18.62;75.62
58471;BME280;44258;51.288;12.068;2023-09-19T03:07:39;99754.06;;;18.54;75.69
58471;BME280;44258;51.288;12.068;2023-09-19T03:10:28;99758.09;;;18.50;75.69
58471;BME280;44258;51.288;12.068;2023-09-19T03:13:18;99752.78;;;18.49;75.78
58471;BME280;44258;51.288;12.068;2023-09-19T03:16:05;99750.22;;;18.47;75.18
58471;BME280;44258;51.288;12.068;2023-09-19T03:18:52;99756.31;;;18.31;75.96
58471;BME280;44258;51.288;12.068;2023-09-19T03:21:39;99752.28;;;18.36;75.61
58471;BME280;44258;51.288;12.068;2023-09-19T03:24:26;99746.28;;;18.32;76.00
58471;BME280;44258;51.288;12.068;2023-09-19T03:27:13;99749.69;;;18.34;75.57
58471;BME280;44258;51.288;12.068;2023-09-19T03:30:03;99747.53;;;18.38;75.20
58471;BME280;44258;51.288;12.068;2023-09-19T03:32:53;99749.16;;;18.30;75.23
58471;BME280;44258;51.288;12.068;2023-09-19T03:35:40;99747.69;;;18.36;74.74
58471;BME280;44258;51.288;12.068;2023-09-19T03:38:32;99752.53;;;18.42;74.78
58471;BME280;44258;51.288;12.068;2023-09-19T03:41:20;99766.09;;;18.52;74.81
58471;BME280;44258;51.288;12.068;2023-09-19T03:44:07;99756.78;;;18.54;73.91
58471;BME280;44258;51.288;12.068;2023-09-19T03:46:55;99765.03;;;18.35;74.98
58471;BME280;44258;51.288;12.068;2023-09-19T03:49:42;99764.19;;;18.34;74.85
58471;BME280;44258;51.288;12.068;2023-09-19T03:52:29;99774.47;;;18.41;74.30
58471;BME280;44258;51.288;12.068;2023-09-19T03:55:16;99776.16;;;18.42;74.14
58471;BME280;44258;51.288;12.068;2023-09-19T03:58:03;99783.63;;;18.40;74.42
58471;BME280;44258;51.288;12.068;2023-09-19T04:00:54;99779.09;;;18.30;74.96
58471;BME280;44258;51.288;12.068;2023-09-19T04:03:42;99775.97;;;18.25;74.78
58471;BME280;44258;51.288;12.068;2023-09-19T04:06:33;99777.00;;;18.14;75.03
58471;BME280;44258;51.288;12.068;2023-09-19T04:09:23;99783.75;;;18.10;74.81
58471;BME280;44258;51.288;12.068;2023-09-19T04:12:13;99770.53;;;18.16;74.57
58471;BME280;44258;51.288;12.068;2023-09-19T04:15:02;99774.97;;;18.26;74.19
58471;BME280;44258;51.288;12.068;2023-09-19T04:17:50;99777.47;;;18.38;73.72
58471;BME280;44258;51.288;12.068;2023-09-19T04:20:38;99793.91;;;18.18;74.24
58471;BME280;44258;51.288;12.068;2023-09-19T04:23:27;99798.19;;;18.21;74.17
58471;BME280;44258;51.288;12.068;2023-09-19T04:26:14;99790.41;;;18.26;73.79
58471;BME280;44258;51.288;12.068;2023-09-19T04:29:02;99795.75;;;18.18;73.83
58471;BME280;44258;51.288;12.068;2023-09-19T04:31:51;99810.59;;;18.33;73.17
58471;BME280;44258;51.288;12.068;2023-09-19T04:34:38;99825.19;;;18.32;72.66
58471;BME280;44258;51.288;12.068;2023-09-19T04:37:26;99822.66;;;18.30;72.67
58471;BME280;44258;51.288;12.068;2023-09-19T04:40:16;99824.47;;;18.40;72.27
58471;BME280;44258;51.288;12.068;2023-09-19T04:43:04;99827.16;;;18.12;72.80
58471;BME280;44258;51.288;12.068;2023-09-19T04:45:53;99818.81;;;18.13;72.47
58471;BME280;44258;51.288;12.068;2023-09-19T04:48:41;99823.88;;;18.08;72.11
58471;BME280;44258;51.288;12.068;2023-09-19T04:51:28;99821.56;;;18.04;72.71
58471;BME280;44258;51.288;12.068;2023-09-19T04:54:21;99826.00;;;17.95;72.57
58471;BME280;44258;51.288;12.068;2023-09-19T04:57:08;99831.72;;;18.02;72.34
58471;BME280;44258;51.288;12.068;2023-09-19T04:59:55;99846.19;;;17.92;72.83
58471;BME280;44258;51.288;12.068;2023-09-19T05:02:42;99847.34;;;17.90;72.64
58471;BME280;44258;51.288;12.068;2023-09-19T05:05:30;99853.19;;;17.95;72.28
58471;BME280;44258;51.288;12.068;2023-09-19T05:08:17;99861.94;;;17.99;72.11
58471;BME280;44258;51.288;12.068;2023-09-19T05:11:05;99867.81;;;17.84;71.52
58471;BME280;44258;51.288;12.068;2023-09-19T05:13:52;99875.13;;;17.93;71.37
58471;BME280;44258;51.288;12.068;2023-09-19T05:16:39;99869.38;;;17.77;71.84
58471;BME280;44258;51.288;12.068;2023-09-19T05:19:27;99870.41;;;17.76;71.50
58471;BME280;44258;51.288;12.068;2023-09-19T05:22:14;99867.41;;;17.69;71.42
58471;BME280;44258;51.288;12.068;2023-09-19T05:25:01;99865.94;;;17.75;70.65
58471;BME280;44258;51.288;12.068;2023-09-19T05:27:57;99872.28;;;17.66;70.84
58471;BME280;44258;51.288;12.068;2023-09-19T05:30:44;99877.25;;;17.61;70.32
58471;BME280;44258;51.288;12.068;2023-09-19T05:33:31;99885.44;;;17.41;71.03
58471;BME280;44258;51.288;12.068;2023-09-19T05:36:18;99873.84;;;17.49;70.45
58471;BME280;44258;51.288;12.068;2023-09-19T05:39:05;99881.41;;;17.65;69.72
58471;BME280;44258;51.288;12.068;2023-09-19T05:41:54;99894.31;;;17.72;69.21
58471;BME280;44258;51.288;12.068;2023-09-19T05:44:43;99898.91;;;17.82;69.21
58471;BME280;44258;51.288;12.068;2023-09-19T05:47:32;99901.44;;;17.93;69.41
58471;BME280;44258;51.288;12.068;2023-09-19T05:50:19;99905.47;;;17.99;68.88
58471;BME280;44258;51.288;12.068;2023-09-19T05:53:06;99916.78;;;18.04;68.70
58471;BME280;44258;51.288;12.068;2023-09-19T05:55:53;99918.94;;;18.00;69.41
58471;BME280;44258;51.288;12.068;2023-09-19T05:58:41;99927.38;;;18.17;68.89
58471;BME280;44258;51.288;12.068;2023-09-19T06:01:33;99930.53;;;18.22;68.64
58471;BME280;44258;51.288;12.068;2023-09-19T06:04:20;99924.94;;;18.33;68.84
58471;BME280;44258;51.288;12.068;2023-09-19T06:07:07;99935.34;;;18.57;68.63
58471;BME280;44258;51.288;12.068;2023-09-19T06:09:54;99939.81;;;18.86;68.58
58471;BME280;44258;51.288;12.068;2023-09-19T06:12:42;99938.50;;;19.00;67.87
58471;BME280;44258;51.288;12.068;2023-09-19T06:15:30;99940.78;;;19.04;67.20
58471;BME280;44258;51.288;12.068;2023-09-19T06:18:20;99939.16;;;19.39;66.34
58471;BME280;44258;51.288;12.068;2023-09-19T06:21:07;99945.88;;;19.63;65.67
58471;BME280;44258;51.288;12.068;2023-09-19T06:23:54;99941.00;;;19.84;65.33
58471;BME280;44258;51.288;12.068;2023-09-19T06:26:43;99948.56;;;19.90;64.07
58471;BME280;44258;51.288;12.068;2023-09-19T06:29:30;99952.63;;;19.86;63.82
58471;BME280;44258;51.288;12.068;2023-09-19T06:32:17;99952.94;;;20.01;62.98
58471;BME280;44258;51.288;12.068;2023-09-19T06:35:06;99945.41;;;19.67;60.48
58471;BME280;44258;51.288;12.068;2023-09-19T06:37:56;99948.25;;;19.76;60.72
58471;BME280;44258;51.288;12.068;2023-09-19T06:40:44;99958.97;;;19.87;60.08
58471;BME280;44258;51.288;12.068;2023-09-19T06:43:30;99955.75;;;20.09;59.44
58471;BME280;44258;51.288;12.068;2023-09-19T06:46:18;99960.34;;;20.09;59.30
58471;BME280;44258;51.288;12.068;2023-09-19T06:49:05;99962.13;;;20.18;58.38
58471;BME280;44258;51.288;12.068;2023-09-19T06:51:55;99968.66;;;20.25;58.60
58471;BME280;44258;51.288;12.068;2023-09-19T06:54:42;99977.66;;;20.18;58.26
58471;BME280;44258;51.288;12.068;2023-09-19T06:57:29;99962.56;;;20.76;57.36
58471;BME280;44258;51.288;12.068;2023-09-19T07:00:17;99967.09;;;20.85;56.73
58471;BME280;44258;51.288;12.068;2023-09-19T07:03:05;99984.59;;;20.74;56.46
58471;BME280;44258;51.288;12.068;2023-09-19T07:05:55;99988.59;;;20.44;56.83
58471;BME280;44258;51.288;12.068;2023-09-19T07:08:45;99984.66;;;20.20;58.03
58471;BME280;44258;51.288;12.068;2023-09-19T07:11:35;99994.66;;;20.11;57.82
58471;BME280;44258;51.288;12.068;2023-09-19T07:14:22;100006.09;;;20.15;58.37
58471;BME280;44258;51.288;12.068;2023-09-19T07:17:09;100017.66;;;20.09;58.91
58471;BME280;44258;51.288;12.068;2023-09-19T07:19:57;100012.59;;;20.14;58.40
58471;BME280;44258;51.288;12.068;2023-09-19T07:22:44;100027.66;;;20.18;59.08
58471;BME280;44258;51.288;12.068;2023-09-19T07:25:34;100025.28;;;20.41;58.77
58471;BME280;44258;51.288;12.068;2023-09-19T07:28:22;100025.00;;;20.62;57.80
58471;BME280;44258;51.288;12.068;2023-09-19T07:31:09;100036.09;;;20.87;57.06
58471;BME280;44258;51.288;12.068;2023-09-19T07:33:56;100038.59;;;20.54;57.27
58471;BME280;44258;51.288;12.068;2023-09-19T07:36:43;100036.19;;;20.77;57.08
58471;BME280;44258;51.288;12.068;2023-09-19T07:39:29;100037.47;;;20.47;56.58
58471;BME280;44258;51.288;12.068;2023-09-19T07:42:18;100053.78;;;20.39;57.58
58471;BME280;44258;51.288;12.068;2023-09-19T07:45:05;100057.19;;;20.05;56.69
58471;BME280;44258;51.288;12.068;2023-09-19T07:47:53;100063.69;;;20.04;57.50
58471;BME280;44258;51.288;12.068;2023-09-19T07:50:45;100064.41;;;19.68;58.67
58471;BME280;44258;51.288;12.068;2023-09-19T07:53:32;100066.69;;;20.01;58.72
58471;BME280;44258;51.288;12.068;2023-09-19T07:56:20;100068.81;;;20.07;58.16
58471;BME280;44258;51.288;12.068;2023-09-19T07:59:09;100065.63;;;19.93;58.45
58471;BME280;44258;51.288;12.068;2023-09-19T08:01:57;100065.31;;;19.69;59.59
58471;BME280;44258;51.288;12.068;2023-09-19T08:04:45;100063.41;;;19.79;59.03
58471;BME280;44258;51.288;12.068;2023-09-19T08:07:32;100069.88;;;19.78;59.26
58471;BME280;44258;51.288;12.068;2023-09-19T08:10:19;100066.75;;;19.63;59.09
58471;BME280;44258;51.288;12.068;2023-09-19T08:13:06;100080.53;;;19.34;59.92
58471;BME280;44258;51.288;12.068;2023-09-19T08:15:58;100070.56;;;19.52;60.30
58471;BME280;44258;51.288;12.068;2023-09-19T08:18:46;100073.91;;;19.37;59.55
58471;BME280;44258;51.288;12.068;2023-09-19T08:21:33;100078.03;;;19.50;59.90
58471;BME280;44258;51.288;12.068;2023-09-19T08:24:20;100082.41;;;19.61;60.22
58471;BME280;44258;51.288;12.068;2023-09-19T08:27:08;100083.59;;;19.59;60.69
58471;BME280;44258;51.288;12.068;2023-09-19T08:29:55;100076.28;;;19.49;60.45
58471;BME280;44258;51.288;12.068;2023-09-19T08:32:43;100078.84;;;19.13;61.10
58471;BME280;44258;51.288;12.068;2023-09-19T08:35:31;100069.91;;;19.31;60.69
58471;BME280;44258;51.288;12.068;2023-09-19T08:38:18;100080.91;;;19.02;61.50
58471;BME280;44258;51.288;12.068;2023-09-19T08:41:07;100077.25;;;19.30;60.41
58471;BME280;44258;51.288;12.068;2023-09-19T08:43:58;100090.63;;;19.24;60.13
58471;BME280;44258;51.288;12.068;2023-09-19T08:46:47;100085.00;;;19.90;59.53
58471;BME280;44258;51.288;12.068;2023-09-19T08:49:39;100083.34;;;19.80;59.12
58471;BME280;44258;51.288;12.068;2023-09-19T08:52:32;100090.44;;;20.18;58.52
58471;BME280;44258;51.288;12.068;2023-09-19T08:55:19;100080.31;;;20.28;58.32
58471;BME280;44258;51.288;12.068;2023-09-19T08:58:09;100084.41;;;20.60;56.58
58471;BME280;44258;51.288;12.068;2023-09-19T09:00:58;100087.75;;;20.54;55.04
58471;BME280;44258;51.288;12.068;2023-09-19T09:03:46;100087.28;;;20.59;54.67
58471;BME280;44258;51.288;12.068;2023-09-19T09:06:36;100083.13;;;20.37;53.91
58471;BME280;44258;51.288;12.068;2023-09-19T09:09:25;100082.19;;;20.64;53.42
58471;BME280;44258;51.288;12.068;2023-09-19T09:12:12;100085.44;;;20.49;53.03
58471;BME280;44258;51.288;12.068;2023-09-19T09:14:59;100081.34;;;20.63;52.23
58471;BME280;44258;51.288;12.068;2023-09-19T09:17:49;100092.22;;;20.99;51.83
58471;BME280;44258;51.288;12.068;2023-09-19T09:20:36;100088.03;;;21.39;50.49
58471;BME280;44258;51.288;12.068;2023-09-19T09:23:24;100091.78;;;21.30;49.39
58471;BME280;44258;51.288;12.068;2023-09-19T09:26:16;100094.78;;;21.53;49.20
58471;BME280;44258;51.288;12.068;2023-09-19T09:29:03;100102.00;;;21.28;49.41
58471;BME280;44258;51.288;12.068;2023-09-19T09:31:50;100111.22;;;21.27;50.28
58471;BME280;44258;51.288;12.068;2023-09-19T09:34:37;100095.25;;;21.40;49.64
58471;BME280;44258;51.288;12.068;2023-09-19T09:37:24;100100.03;;;21.20;49.96
58471;BME280;44258;51.288;12.068;2023-09-19T09:40:13;100105.44;;;21.30;49.70
58471;BME280;44258;51.288;12.068;2023-09-19T09:43:24;100094.59;;;21.46;49.86
58471;BME280;44258;51.288;12.068;2023-09-19T09:46:13;100106.19;;;21.40;49.94
58471;BME280;44258;51.288;12.068;2023-09-19T09:49:22;100110.47;;;21.43;49.55
58471;BME280;44258;51.288;12.068;2023-09-19T09:52:12;100109.31;;;21.53;49.59
58471;BME280;44258;51.288;12.068;2023-09-19T09:55:02;100107.03;;;21.41;49.18
58471;BME280;44258;51.288;12.068;2023-09-19T09:57:54;100114.78;;;21.01;49.05
58471;BME280;44258;51.288;12.068;2023-09-19T10:01:02;100107.41;;;21.20;49.81
58471;BME280;44258;51.288;12.068;2023-09-19T10:03:57;100111.78;;;20.68;49.53
58471;BME280;44258;51.288;12.068;2023-09-19T10:06:45;100112.56;;;20.79;49.87
58471;BME280;44258;51.288;12.068;2023-09-19T10:09:44;100121.91;;;20.94;49.07
58471;BME280;44258;51.288;12.068;2023-09-19T10:12:32;100127.78;;;20.81;49.70
58471;BME280;44258;51.288;12.068;2023-09-19T10:15:22;100120.22;;;20.75;49.99
58471;BME280;44258;51.288;12.068;2023-09-19T10:18:16;100133.16;;;20.91;49.52
58471;BME280;44258;51.288;12.068;2023-09-19T10:21:06;100122.72;;;20.68;49.15
58471;BME280;44258;51.288;12.068;2023-09-19T10:23:56;100136.13;;;20.80;49.29
58471;BME280;44258;51.288;12.068;2023-09-19T10:26:45;100123.97;;;21.18;48.46
58471;BME280;44258;51.288;12.068;2023-09-19T10:29:32;100125.72;;;21.01;49.04
58471;BME280;44258;51.288;12.068;2023-09-19T10:32:23;100134.09;;;21.26;48.49
58471;BME280;44258;51.288;12.068;2023-09-19T10:35:12;100132.91;;;21.46;48.50
58471;BME280;44258;51.288;12.068;2023-09-19T10:38:01;100130.34;;;21.53;48.22
58471;BME280;44258;51.288;12.068;2023-09-19T10:40:51;100123.28;;;21.42;47.53
58471;BME280;44258;51.288;12.068;2023-09-19T10:43:38;100132.16;;;21.18;46.71
58471;BME280;44258;51.288;12.068;2023-09-19T10:46:30;100126.56;;;21.02;45.82
58471;BME280;44258;51.288;12.068;2023-09-19T10:49:19;100126.94;;;21.07;45.65
58471;BME280;44258;51.288;12.068;2023-09-19T10:52:07;100134.84;;;21.10;44.01
58471;BME280;44258;51.288;12.068;2023-09-19T10:54:58;100131.06;;;21.29;45.79
58471;BME280;44258;51.288;12.068;2023-09-19T10:57:47;100136.84;;;21.26;45.41
58471;BME280;44258;51.288;12.068;2023-09-19T11:00:46;100131.09;;;21.63;45.40
58471;BME280;44258;51.288;12.068;2023-09-19T11:03:36;100134.59;;;21.21;45.55
58471;BME280;44258;51.288;12.068;2023-09-19T11:06:30;100139.00;;;21.40;46.84
58471;BME280;44258;51.288;12.068;2023-09-19T11:09:17;100139.09;;;21.57;46.40
58471;BME280;44258;51.288;12.068;2023-09-19T11:12:08;100140.50;;;21.35;46.35
58471;BME280;44258;51.288;12.068;2023-09-19T11:14:58;100137.69;;;21.26;46.52
58471;BME280;44258;51.288;12.068;2023-09-19T11:17:45;100138.22;;;21.04;47.11
58471;BME280;44258;51.288;12.068;2023-09-19T11:20:33;100125.88;;;21.00;46.56
58471;BME280;44258;51.288;12.068;2023-09-19T11:23:36;100132.00;;;21.20;46.33
58471;BME280;44258;51.288;12.068;2023-09-19T11:26:32;100126.78;;;21.52;45.97
58471;BME280;44258;51.288;12.068;2023-09-19T11:29:29;100128.91;;;21.67;47.34
58471;BME280;44258;51.288;12.068;2023-09-19T11:32:21;100127.22;;;21.74;44.93
58471;BME280;44258;51.288;12.068;2023-09-19T11:35:39;100121.31;;;21.52;45.07
58471;BME280;44258;51.288;12.068;2023-09-19T11:41:55;100110.00;;;21.56;45.75
58471;BME280;44258;51.288;12.068;2023-09-19T11:44:42;100109.63;;;21.77;46.55
58471;BME280;44258;51.288;12.068;2023-09-19T11:47:29;100103.59;;;22.07;46.25
58471;BME280;44258;51.288;12.068;2023-09-19T11:50:18;100107.59;;;22.21;45.39
58471;BME280;44258;51.288;12.068;2023-09-19T11:53:06;100112.19;;;22.29;45.88
58471;BME280;44258;51.288;12.068;2023-09-19T11:55:56;100115.53;;;22.90;45.52
58471;BME280;44258;51.288;12.068;2023-09-19T11:58:45;100107.50;;;22.97;45.21
58471;BME280;44258;51.288;12.068;2023-09-19T12:01:34;100106.63;;;22.71;45.48
58471;BME280;44258;51.288;12.068;2023-09-19T12:04:22;100104.72;;;22.56;44.45
58471;BME280;44258;51.288;12.068;2023-09-19T12:07:23;100106.53;;;22.14;44.03
58471;BME280;44258;51.288;12.068;2023-09-19T12:10:11;100101.03;;;22.14;44.36
58471;BME280;44258;51.288;12.068;2023-09-19T12:13:00;100098.84;;;22.26;44.92
58471;BME280;44258;51.288;12.068;2023-09-19T12:15:53;100097.31;;;22.23;44.46
58471;BME280;44258;51.288;12.068;2023-09-19T12:18:47;100098.00;;;22.17;43.88
58471;BME280;44258;51.288;12.068;2023-09-19T12:21:35;100089.16;;;21.97;43.71
58471;BME280;44258;51.288;12.068;2023-09-19T12:24:22;100090.16;;;21.88;43.54
58471;BME280;44258;51.288;12.068;2023-09-19T12:27:12;100091.44;;;22.02;44.53
58471;BME280;44258;51.288;12.068;2023-09-19T12:29:59;100087.69;;;21.68;45.01
58471;BME280;44258;51.288;12.068;2023-09-19T12:32:52;100085.13;;;21.67;44.49
58471;BME280;44258;51.288;12.068;2023-09-19T12:35:41;100092.94;;;21.62;45.12
58471;BME280;44258;51.288;12.068;2023-09-19T12:38:30;100099.16;;;21.72;44.89
58471;BME280;44258;51.288;12.068;2023-09-19T12:41:20;100084.94;;;21.60;45.40
58471;BME280;44258;51.288;12.068;2023-09-19T12:44:10;100082.59;;;21.82;44.64
58471;BME280;44258;51.288;12.068;2023-09-19T12:46:58;100081.97;;;21.96;45.65
58471;BME280;44258;51.288;12.068;2023-09-19T12:50:06;100077.81;;;21.84;46.41
58471;BME280;44258;51.288;12.068;2023-09-19T12:52:58;100078.44;;;22.04;45.73
58471;BME280;44258;51.288;12.068;2023-09-19T12:55:53;100079.00;;;22.24;44.65
58471;BME280;44258;51.288;12.068;2023-09-19T12:58:54;100076.38;;;22.06;44.66
58471;BME280;44258;51.288;12.068;2023-09-19T13:01:42;100082.06;;;22.37;44.24
58471;BME280;44258;51.288;12.068;2023-09-19T13:04:32;100078.50;;;22.53;43.78
58471;BME280;44258;51.288;12.068;2023-09-19T13:07:41;100069.59;;;22.43;43.97
58471;BME280;44258;51.288;12.068;2023-09-19T13:10:30;100069.06;;;22.39;43.45
58471;BME280;44258;51.288;12.068;2023-09-19T13:13:22;100069.25;;;22.38;44.10
58471;BME280;44258;51.288;12.068;2023-09-19T13:16:13;100076.97;;;22.67;43.92
58471;BME280;44258;51.288;12.068;2023-09-19T13:19:04;100079.88;;;22.65;43.76
58471;BME280;44258;51.288;12.068;2023-09-19T13:21:54;100076.31;;;22.89;43.42
58471;BME280;44258;51.288;12.068;2023-09-19T13:24:45;100063.47;;;22.73;43.34
58471;BME280;44258;51.288;12.068;2023-09-19T13:27:36;100072.34;;;22.67;42.51
58471;BME280;44258;51.288;12.068;2023-09-19T13:30:24;100070.81;;;22.48;42.35
58471;BME280;44258;51.288;12.068;2023-09-19T13:33:12;100075.59;;;22.46;42.51
58471;BME280;44258;51.288;12.068;2023-09-19T13:36:06;100066.38;;;22.56;43.21
58471;BME280;44258;51.288;12.068;2023-09-19T13:38:53;100071.31;;;22.52;42.29
58471;BME280;44258;51.288;12.068;2023-09-19T13:41:45;100064.81;;;22.53;43.66
58471;BME280;44258;51.288;12.068;2023-09-19T13:44:33;100063.94;;;22.52;42.10
58471;BME280;44258;51.288;12.068;2023-09-19T13:47:19;100057.78;;;22.42;42.61
58471;BME280;44258;51.288;12.068;2023-09-19T13:50:10;100055.03;;;22.34;43.37
58471;BME280;44258;51.288;12.068;2023-09-19T13:52:57;100053.97;;;22.27;42.30
58471;BME280;44258;51.288;12.068;2023-09-19T13:55:47;100053.28;;;22.25;43.33
58471;BME280;44258;51.288;12.068;2023-09-19T13:58:35;100057.25;;;22.39;42.67
58471;BME280;44258;51.288;12.068;2023-09-19T14:01:22;100055.91;;;22.67;43.79
58471;BME280;44258;51.288;12.068;2023-09-19T14:04:09;100052.81;;;22.54;44.44
58471;BME280;44258;51.288;12.068;2023-09-19T14:06:57;100046.13;;;22.24;43.68
58471;BME280;44258;51.288;12.068;2023-09-19T14:09:44;100043.19;;;22.01;44.30
58471;BME280;44258;51.288;12.068;2023-09-19T14:12:31;100055.88;;;22.35;43.94
58471;BME280;44258;51.288;12.068;2023-09-19T14:15:20;100053.66;;;22.30;43.77
58471;BME280;44258;51.288;12.068;2023-09-19T14:18:14;100041.50;;;22.65;43.83
58471;BME280;44258;51.288;12.068;2023-09-19T14:21:03;100043.56;;;22.47;45.16
58471;BME280;44258;51.288;12.068;2023-09-19T14:23:50;100043.06;;;22.51;44.57
58471;BME280;44258;51.288;12.068;2023-09-19T14:26:41;100051.09;;;22.37;43.49
58471;BME280;44258;51.288;12.068;2023-09-19T14:29:29;100049.91;;;22.47;42.94
58471;BME280;44258;51.288;12.068;2023-09-19T14:32:17;100048.03;;;22.40;43.12
58471;BME280;44258;51.288;12.068;2023-09-19T14:35:05;100046.66;;;22.36;42.61
58471;BME280;44258;51.288;12.068;2023-09-19T14:37:52;100051.44;;;22.42;43.16
58471;BME280;44258;51.288;12.068;2023-09-19T14:40:39;100046.28;;;22.22;42.39
58471;BME280;44258;51.288;12.068;2023-09-19T14:43:27;100039.00;;;21.88;42.02